KPTBKSMS

Guest
Details From KPTB - DINWIDDIE CO
To KSMS - SUMTER
Flight Number -
Tags generated
Created
Modified
Stats Distance 238 nm / 441 km
Max Altitude 28,500 ft / 8,687 m
Waypoints 4
Social Downloads 2
Likes 0
Share VATSIM

Download

Looking for another format? Having issues loading an existing format? Contact us
Advertisement - Login to hide

Notes

Basic altitude profile: - Ascent Rate: 1000ft/min - Ascent Speed: 200kts - Cruise Altitude: 14000ft - Cruise Speed: 220kts - Descent Rate: 1500ft/min - Descent Speed: 200kts Options: - Use NATs: yes - Use PACOTS: yes - Use low airways: yes - Use high airways: yes

Route

KPTB RDU J52 TUBAS KSMS

ID Type Via Altitude Latitude Longitude Leg Dist Tot Dist Heading (true) Name
O KPTB APT - 0 ft / 0 m 37.18358˚ -77.50777˚ - 0 nm - DINWIDDIE CO
RDU VOR - 28,500 ft / 8,687 m 35.87253˚ -78.78333˚ 99 nm 99 nm 218° / 218° RALEIGH/DURHAM VORTAC
TUBAS FIX J52 (AWY-HI) 18,000 ft / 5,486 m 35.16607˚ -79.59754˚ 58 nm 158 nm 223° / 223° -
O KSMS APT - 0 ft / 0 m 33.99476˚ -80.36126˚ 79 nm 237 nm 208° / 208° SUMTER

Altitude Profile

Advertisement - Login to hide

Weather


0- 5 10 15 20 25 30 35+ Temperature / ° C

Clouds and Precipitation
Forecast for 2017-12-18 12:00 UTC. Updated 18 minutes ago

Ground ~20,000 ft ~40,000 ft Winds

KPTB

Details ICAO KPTB
Name DINWIDDIE CO
Region United States
Timezone America/New_York (UTC-5.0)
Stats Elevation 193 ft / 59 m (AMSL)
Location 37.183582° -77.507765°
Runways 2
Magnetic Variation 10.207° W

METAR

KPTB 180659Z AUTO 00000KT 10SM OVC075 04/02 A3015 RMK AO2

Decode

TAF

Not found

Departure Runways

ID Width Length Bearing (true) Bearing (mag) Surface Threshold Offset Overrun Length
05 100 ft / 30 m 4,999 ft / 1,524 m 42.79° 53.00° Asphalt 0 ft / 0 m 0 ft / 0 m
14 50 ft / 15 m 3,061 ft / 933 m 133.04° 143.25° Asphalt 0 ft / 0 m 0 ft / 0 m
23 100 ft / 30 m 4,999 ft / 1,524 m 222.80° 233.01° Asphalt 0 ft / 0 m 0 ft / 0 m
32 50 ft / 15 m 3,061 ft / 933 m 313.05° 323.26° Asphalt 0 ft / 0 m 0 ft / 0 m

KSMS

Details ICAO KSMS
Name SUMTER
Region United States
Timezone America/New_York (UTC-5.0)
Stats Elevation 182 ft / 55 m (AMSL)
Location 33.994761° -80.361259°
Runways 2
Magnetic Variation 7.866° W

METAR

KSMS 180735Z AUTO 00000KT 10SM FEW034 OVC042 11/06 A3017 RMK AO2

Decode

TAF

Not found

Destination Runways

ID Width Length Bearing (true) Bearing (mag) Surface Threshold Offset Overrun Length
05 100 ft / 30 m 5,504 ft / 1,678 m 43.03° 50.90° Asphalt 0 ft / 0 m 0 ft / 0 m
14 120 ft / 37 m 3,082 ft / 940 m 134.12° 141.99° Grass 0 ft / 0 m 0 ft / 0 m
23 100 ft / 30 m 5,504 ft / 1,678 m 223.04° 230.91° Asphalt 0 ft / 0 m 0 ft / 0 m
32 120 ft / 37 m 3,082 ft / 940 m 314.12° 321.99° Grass 0 ft / 0 m 0 ft / 0 m